createdAt,value
2019-02-26T00:00:58.619Z,21.36
2019-02-26T00:03:28.630Z,21.34
2019-02-26T00:05:59.503Z,21.32
2019-02-26T00:08:29.627Z,21.30
2019-02-26T00:11:01.148Z,21.28
2019-02-26T00:13:31.767Z,21.26
2019-02-26T00:16:03.265Z,21.24
2019-02-26T00:18:30.746Z,21.22
2019-02-26T00:21:01.188Z,21.21
2019-02-26T00:23:30.190Z,21.19
2019-02-26T00:25:58.966Z,21.17
2019-02-26T00:28:27.909Z,21.16
2019-02-26T00:30:57.196Z,21.15
2019-02-26T00:33:28.871Z,21.12
2019-02-26T00:35:57.827Z,21.10
2019-02-26T00:38:26.741Z,21.09
2019-02-26T00:40:57.335Z,21.08
2019-02-26T00:43:28.024Z,21.06
2019-02-26T00:45:58.348Z,21.04
2019-02-26T00:48:27.455Z,21.04
2019-02-26T00:50:57.289Z,21.01
2019-02-26T00:53:28.463Z,21.00
2019-02-26T00:55:59.386Z,20.98
2019-02-26T00:58:28.207Z,20.95
2019-02-26T01:00:57.039Z,20.94
2019-02-26T01:03:25.856Z,20.92
2019-02-26T01:05:54.677Z,20.91
2019-02-26T01:08:23.607Z,20.89
2019-02-26T01:10:52.768Z,20.88
2019-02-26T01:13:22.518Z,20.87
2019-02-26T01:15:52.224Z,20.84
2019-02-26T01:18:22.851Z,20.82
2019-02-26T01:20:52.587Z,20.81
2019-02-26T01:23:24.369Z,20.80
2019-02-26T01:25:54.666Z,20.78
2019-02-26T01:28:24.826Z,20.76
2019-02-26T01:30:55.835Z,20.76
2019-02-26T01:33:26.715Z,20.73
2019-02-26T01:35:56.163Z,20.72
2019-02-26T01:38:25.901Z,20.72
2019-02-26T01:40:56.009Z,20.70
2019-02-26T01:43:25.161Z,20.67
2019-02-26T01:45:55.393Z,20.67
2019-02-26T01:48:24.659Z,20.65
2019-02-26T01:50:54.541Z,20.64
2019-02-26T01:53:24.433Z,20.62
2019-02-26T01:55:53.297Z,20.61
2019-02-26T01:58:22.340Z,20.59
2019-02-26T02:00:55.262Z,20.59
2019-02-26T02:03:23.095Z,20.57
2019-02-26T02:05:54.717Z,20.55
2019-02-26T02:08:24.971Z,20.54
2019-02-26T02:10:56.529Z,20.53
2019-02-26T02:13:28.342Z,20.51
2019-02-26T02:15:55.209Z,20.50
2019-02-26T02:18:25.916Z,20.49
2019-02-26T02:20:54.698Z,20.47
2019-02-26T02:23:25.702Z,20.46
2019-02-26T02:25:54.320Z,20.44
2019-02-26T02:28:23.988Z,20.44
2019-02-26T02:30:53.926Z,20.43
2019-02-26T02:33:24.200Z,20.43
2019-02-26T02:35:53.397Z,20.43
2019-02-26T02:38:22.340Z,20.43
2019-02-26T02:40:52.856Z,20.45
2019-02-26T02:43:23.538Z,20.45
2019-02-26T02:45:55.144Z,20.45
2019-02-26T02:48:23.503Z,20.45
2019-02-26T02:50:52.436Z,20.45
2019-02-26T02:53:23.964Z,20.46
2019-02-26T02:55:51.939Z,20.46
2019-02-26T02:58:21.341Z,20.45
2019-02-26T03:00:52.243Z,20.46
2019-02-26T03:03:21.877Z,20.45
2019-02-26T03:05:50.726Z,20.45
2019-02-26T03:08:22.447Z,20.43
2019-02-26T03:10:50.398Z,20.43
2019-02-26T03:13:20.277Z,20.42
2019-02-26T03:15:51.046Z,20.41
2019-02-26T03:18:20.625Z,20.40
2019-02-26T03:20:51.207Z,20.38
2019-02-26T03:23:20.390Z,20.36
2019-02-26T03:25:50.519Z,20.35
2019-02-26T03:28:19.877Z,20.35
2019-02-26T03:30:48.725Z,20.33
2019-02-26T03:33:17.605Z,20.30
2019-02-26T03:35:46.417Z,20.28
2019-02-26T03:38:17.797Z,20.28
2019-02-26T03:40:45.794Z,20.26
2019-02-26T03:43:16.277Z,20.26
2019-02-26T03:45:47.296Z,20.23
2019-02-26T03:48:19.314Z,20.23
2019-02-26T03:50:46.205Z,20.21
2019-02-26T03:53:15.084Z,20.20
2019-02-26T03:55:44.105Z,20.19
2019-02-26T03:58:12.877Z,20.17
2019-02-26T04:00:43.931Z,20.17
2019-02-26T04:03:14.641Z,20.16
2019-02-26T04:05:43.158Z,20.15
2019-02-26T04:08:12.023Z,20.13
2019-02-26T04:10:40.819Z,20.11
2019-02-26T04:13:09.683Z,20.09
2019-02-26T04:15:38.523Z,20.07
2019-02-26T04:18:07.426Z,20.06
2019-02-26T04:20:36.170Z,19.99
2019-02-26T04:23:04.991Z,20.02
2019-02-26T04:26:18.528Z,20.00
2019-02-26T04:29:03.514Z,20.00
2019-02-26T04:32:12.131Z,19.99
2019-02-26T04:35:11.065Z,19.99
2019-02-26T04:38:18.058Z,20.00
2019-02-26T04:41:00.527Z,20.02
2019-02-26T04:44:00.758Z,20.04
2019-02-26T04:47:21.969Z,20.05
2019-02-26T04:49:50.543Z,20.07
2019-02-26T04:52:19.338Z,20.07
2019-02-26T04:54:48.145Z,20.07
2019-02-26T04:57:16.936Z,20.08
2019-02-26T04:59:45.948Z,20.08
2019-02-26T05:02:14.900Z,20.09
2019-02-26T05:04:43.758Z,20.08
2019-02-26T05:07:14.000Z,20.07
2019-02-26T05:09:43.171Z,20.07
2019-02-26T05:12:12.010Z,20.06
2019-02-26T05:14:40.829Z,20.05
2019-02-26T05:17:09.681Z,20.04
2019-02-26T05:19:39.491Z,20.02
2019-02-26T05:22:09.243Z,20.01
2019-02-26T05:24:41.398Z,19.99
2019-02-26T05:27:15.532Z,19.97
2019-02-26T05:29:46.602Z,19.97
2019-02-26T05:32:15.781Z,19.92
2019-02-26T05:34:45.945Z,19.93
2019-02-26T05:37:15.190Z,19.92
2019-02-26T05:39:46.801Z,19.90
2019-02-26T05:42:14.823Z,19.88
2019-02-26T05:44:43.715Z,19.88
2019-02-26T05:47:13.178Z,19.85
2019-02-26T05:49:45.651Z,19.85
2019-02-26T05:52:13.755Z,19.82
2019-02-26T05:54:42.653Z,19.81
2019-02-26T05:57:26.065Z,19.80
2019-02-26T05:59:42.167Z,19.79
2019-02-26T06:02:13.226Z,19.79
2019-02-26T06:04:43.899Z,19.79
2019-02-26T06:07:12.261Z,19.78
2019-02-26T06:09:41.153Z,19.79
2019-02-26T06:12:09.987Z,19.79
2019-02-26T06:14:39.482Z,19.80
2019-02-26T06:17:10.708Z,19.80
2019-02-26T06:19:44.936Z,19.83
2019-02-26T06:22:17.064Z,19.84
2019-02-26T06:24:44.785Z,19.84
2019-02-26T06:27:16.017Z,19.84
2019-02-26T06:29:44.117Z,19.85
2019-02-26T06:32:14.651Z,19.85
2019-02-26T06:34:43.498Z,19.86
2019-02-26T06:37:20.029Z,19.86
2019-02-26T06:39:52.616Z,19.85
2019-02-26T06:42:19.495Z,19.86
2019-02-26T06:44:49.424Z,19.88
2019-02-26T06:47:18.927Z,19.88
2019-02-26T06:49:48.549Z,19.91
2019-02-26T06:52:18.312Z,19.92
2019-02-26T06:54:50.776Z,19.93
2019-02-26T06:57:17.864Z,19.99
2019-02-26T06:59:46.650Z,20.04
2019-02-26T07:02:15.590Z,20.08
2019-02-26T07:04:44.456Z,20.13
2019-02-26T07:07:14.420Z,20.18
2019-02-26T07:09:43.978Z,20.23
2019-02-26T07:12:14.632Z,20.29
2019-02-26T07:14:43.737Z,20.35
2019-02-26T07:17:12.594Z,20.39
2019-02-26T07:19:41.391Z,20.43
2019-02-26T07:22:11.612Z,20.43
2019-02-26T07:24:41.842Z,20.46
2019-02-26T07:27:13.723Z,20.50
2019-02-26T07:29:42.875Z,20.54
2019-02-26T07:32:14.619Z,20.59
2019-02-26T07:34:45.205Z,20.64
2019-02-26T07:37:15.836Z,20.66
2019-02-26T07:39:46.702Z,20.70
2019-02-26T07:42:16.952Z,20.70
2019-02-26T07:44:46.047Z,20.73
2019-02-26T07:47:14.821Z,20.78
2019-02-26T07:49:43.780Z,20.81
2019-02-26T07:52:12.680Z,20.85
2019-02-26T07:54:42.781Z,20.29
2019-02-26T07:57:12.203Z,19.64
2019-02-26T07:59:42.662Z,19.14
2019-02-26T08:02:13.471Z,18.75
2019-02-26T08:04:43.610Z,18.54
2019-02-26T08:07:12.655Z,18.29
2019-02-26T08:09:41.646Z,18.10
2019-02-26T08:12:11.378Z,17.65
2019-02-26T08:14:42.768Z,17.22
2019-02-26T08:17:11.660Z,16.98
2019-02-26T08:19:43.752Z,16.77
2019-02-26T08:22:11.288Z,16.51
2019-02-26T08:24:40.132Z,16.20
2019-02-26T08:27:11.038Z,15.97
2019-02-26T08:29:39.516Z,15.89
2019-02-26T08:32:08.312Z,15.96
2019-02-26T08:34:39.139Z,16.19
2019-02-26T08:37:07.757Z,16.48
2019-02-26T08:39:38.007Z,16.83
2019-02-26T08:42:11.455Z,17.18
2019-02-26T08:44:40.299Z,17.52
2019-02-26T08:47:11.994Z,17.85
2019-02-26T08:49:40.692Z,18.12
2019-02-26T08:52:10.387Z,18.33
2019-02-26T08:54:39.466Z,18.52
2019-02-26T08:57:08.361Z,18.65
2019-02-26T08:59:37.295Z,18.79
2019-02-26T09:02:06.159Z,18.90
2019-02-26T09:04:37.393Z,18.98
2019-02-26T09:07:05.681Z,19.08
2019-02-26T09:09:35.198Z,19.15
2019-02-26T09:12:04.098Z,19.23
2019-02-26T09:14:37.296Z,19.29
2019-02-26T09:17:04.522Z,19.36
2019-02-26T09:19:35.495Z,19.42
2019-02-26T09:22:04.108Z,19.44
2019-02-26T09:24:33.136Z,19.49
2019-02-26T09:27:04.321Z,19.52
2019-02-26T09:29:34.324Z,19.55
2019-02-26T09:32:06.720Z,19.59
2019-02-26T09:34:34.889Z,19.61
2019-02-26T09:37:05.751Z,19.63
2019-02-26T09:39:36.496Z,19.66
2019-02-26T09:42:06.653Z,19.70
2019-02-26T09:44:36.599Z,19.73
2019-02-26T09:47:07.599Z,19.76
2019-02-26T09:49:36.172Z,19.79
2019-02-26T09:52:06.525Z,19.84
2019-02-26T09:54:40.438Z,19.89
2019-02-26T09:57:06.016Z,19.92
2019-02-26T09:59:35.952Z,19.95
2019-02-26T10:02:06.044Z,20.01
2019-02-26T10:04:35.170Z,20.07
2019-02-26T10:07:04.773Z,20.12
2019-02-26T10:09:36.751Z,20.15
2019-02-26T10:12:07.512Z,20.18
2019-02-26T10:14:38.316Z,20.16
2019-02-26T10:17:06.477Z,20.15
2019-02-26T10:19:35.717Z,20.18
2019-02-26T10:22:09.582Z,20.21
2019-02-26T10:24:39.647Z,20.26
2019-02-26T10:27:10.917Z,20.31
2019-02-26T10:29:39.910Z,20.38
2019-02-26T10:32:11.194Z,20.42
2019-02-26T10:34:39.077Z,20.46
2019-02-26T10:37:08.047Z,20.48
2019-02-26T10:39:36.906Z,20.50
2019-02-26T10:42:05.816Z,20.49
2019-02-26T10:44:34.824Z,20.50
2019-02-26T10:47:05.750Z,20.49
2019-02-26T10:49:34.309Z,20.49
2019-02-26T10:52:03.274Z,20.52
2019-02-26T10:54:36.603Z,20.55
2019-02-26T10:57:06.433Z,20.57
2019-02-26T10:59:33.532Z,20.60
2019-02-26T11:02:03.205Z,20.61
2019-02-26T11:04:35.606Z,20.63
2019-02-26T11:07:04.936Z,20.64
2019-02-26T11:09:33.450Z,20.64
2019-02-26T11:12:05.223Z,20.64
2019-02-26T11:14:33.984Z,20.66
2019-02-26T11:17:03.514Z,20.67
2019-02-26T11:19:35.660Z,20.67
2019-02-26T11:22:04.197Z,20.68
2019-02-26T11:24:34.135Z,20.67
2019-02-26T11:27:04.105Z,20.67
2019-02-26T11:29:35.854Z,20.67
2019-02-26T11:32:07.629Z,20.68
2019-02-26T11:34:36.271Z,20.69
2019-02-26T11:37:08.871Z,20.69
2019-02-26T11:39:36.323Z,20.67
2019-02-26T11:42:05.282Z,20.66
2019-02-26T11:44:34.163Z,20.65
2019-02-26T11:47:03.040Z,20.64
2019-02-26T11:49:33.966Z,20.64
2019-02-26T11:52:04.389Z,20.65
2019-02-26T11:54:35.058Z,20.65
2019-02-26T11:57:04.536Z,20.64
2019-02-26T11:59:35.666Z,20.62
2019-02-26T12:02:06.418Z,20.65
2019-02-26T12:04:35.493Z,20.64
2019-02-26T12:07:06.840Z,20.64
2019-02-26T12:09:37.826Z,20.64
2019-02-26T12:12:06.169Z,20.69
2019-02-26T12:14:38.002Z,20.73
2019-02-26T12:17:06.835Z,20.77
2019-02-26T12:19:37.146Z,20.81
2019-02-26T12:22:06.189Z,20.86
2019-02-26T12:24:36.138Z,20.88
2019-02-26T12:27:07.099Z,20.87
2019-02-26T12:29:35.733Z,20.83
2019-02-26T12:32:04.888Z,20.83
2019-02-26T12:34:35.171Z,20.87
2019-02-26T12:37:06.610Z,20.89
2019-02-26T12:39:35.204Z,20.88
2019-02-26T12:42:16.714Z,20.85
2019-02-26T12:44:46.548Z,20.81
2019-02-26T12:47:18.106Z,20.78
2019-02-26T12:49:46.070Z,20.78
2019-02-26T12:52:17.794Z,20.76
2019-02-26T12:54:45.590Z,20.76
2019-02-26T12:57:16.934Z,20.75
2019-02-26T12:59:45.182Z,20.73
2019-02-26T13:02:17.020Z,20.73
2019-02-26T13:04:47.259Z,20.75
2019-02-26T13:07:15.496Z,20.76
2019-02-26T13:09:50.443Z,20.77
2019-02-26T13:12:19.818Z,20.76
2019-02-26T13:14:47.516Z,20.78
2019-02-26T13:17:17.459Z,20.78
2019-02-26T13:19:49.256Z,20.76
2019-02-26T13:22:20.263Z,20.71
2019-02-26T13:24:48.749Z,20.72
2019-02-26T13:27:17.830Z,20.72
2019-02-26T13:29:53.473Z,20.72
2019-02-26T13:32:20.532Z,20.70
2019-02-26T13:34:47.977Z,20.69
2019-02-26T13:37:16.926Z,20.67
2019-02-26T13:39:45.945Z,20.65
2019-02-26T13:42:19.283Z,20.61
2019-02-26T13:44:45.312Z,20.59
2019-02-26T13:47:14.284Z,20.58
2019-02-26T13:49:43.194Z,20.55
2019-02-26T13:52:12.186Z,20.52
2019-02-26T13:54:41.101Z,20.48
2019-02-26T13:57:10.188Z,20.46
2019-02-26T13:59:39.081Z,20.43
2019-02-26T14:02:08.151Z,20.40
2019-02-26T14:04:37.137Z,20.36
2019-02-26T14:07:06.089Z,20.31
2019-02-26T14:09:35.075Z,20.28
2019-02-26T14:12:03.943Z,20.26
2019-02-26T14:14:33.145Z,20.28
2019-02-26T14:17:02.169Z,20.29
2019-02-26T14:19:31.095Z,20.29
2019-02-26T14:21:59.929Z,20.28
2019-02-26T14:24:29.144Z,20.26
2019-02-26T14:26:58.049Z,20.25
2019-02-26T14:29:26.968Z,20.23
2019-02-26T14:31:55.816Z,20.23
2019-02-26T14:34:24.705Z,20.23
2019-02-26T14:36:53.635Z,20.22
2019-02-26T14:39:23.374Z,20.21
2019-02-26T14:41:52.262Z,20.19
2019-02-26T14:44:21.262Z,20.17
2019-02-26T14:46:50.194Z,20.14
2019-02-26T14:49:19.136Z,20.10
2019-02-26T14:51:48.000Z,20.10
2019-02-26T14:54:16.874Z,20.10
2019-02-26T14:56:45.803Z,20.10
2019-02-26T14:59:14.673Z,20.07
2019-02-26T15:01:43.595Z,20.06
2019-02-26T15:04:12.458Z,20.05
2019-02-26T15:06:41.377Z,20.05
2019-02-26T15:09:10.319Z,20.04
2019-02-26T15:11:39.240Z,20.01
2019-02-26T15:14:08.116Z,20.01
2019-02-26T15:16:37.053Z,20.00
2019-02-26T15:19:06.023Z,19.98
2019-02-26T15:21:34.972Z,19.95
2019-02-26T15:24:03.976Z,19.93
2019-02-26T15:26:33.001Z,19.90
2019-02-26T15:29:01.924Z,19.87
2019-02-26T15:31:30.843Z,19.84
2019-02-26T15:33:59.862Z,19.84
2019-02-26T15:36:28.942Z,19.83
2019-02-26T15:38:57.813Z,19.83
2019-02-26T15:41:26.589Z,19.83
2019-02-26T15:43:56.520Z,19.81
2019-02-26T15:46:25.939Z,19.79
2019-02-26T15:48:56.695Z,19.78
2019-02-26T15:51:25.647Z,19.78
2019-02-26T15:53:55.561Z,19.72
2019-02-26T15:56:25.291Z,19.67
2019-02-26T15:58:54.302Z,19.65
2019-02-26T16:01:23.157Z,19.66
2019-02-26T16:03:52.160Z,19.66
2019-02-26T16:06:21.255Z,19.69
2019-02-26T16:08:50.569Z,19.79
2019-02-26T16:11:19.616Z,19.97
2019-02-26T16:13:48.509Z,20.19
2019-02-26T16:16:18.079Z,20.37
2019-02-26T16:18:48.561Z,20.48
2019-02-26T16:21:19.309Z,20.56
2019-02-26T16:23:48.424Z,20.62
2019-02-26T16:26:17.538Z,20.66
2019-02-26T16:28:46.603Z,20.66
2019-02-26T16:31:15.705Z,20.68
2019-02-26T16:33:46.726Z,20.66
2019-02-26T16:36:16.266Z,20.64
2019-02-26T16:38:45.382Z,20.62
2019-02-26T16:41:16.313Z,20.61
2019-02-26T16:43:47.246Z,20.61
2019-02-26T16:46:16.534Z,20.62
2019-02-26T16:48:47.399Z,20.64
2019-02-26T16:51:20.951Z,20.65
2019-02-26T16:53:49.129Z,20.63
2019-02-26T16:56:21.467Z,20.60
2019-02-26T16:58:50.615Z,20.57
2019-02-26T17:01:21.939Z,20.58
2019-02-26T17:03:51.797Z,20.57
2019-02-26T17:06:21.200Z,20.59
2019-02-26T17:08:50.599Z,20.60
2019-02-26T17:11:19.899Z,20.59
2019-02-26T17:13:49.374Z,20.62
2019-02-26T17:16:18.757Z,20.64
2019-02-26T17:18:47.940Z,20.66
2019-02-26T17:21:17.053Z,20.77
2019-02-26T17:23:48.999Z,20.97
2019-02-26T17:26:18.690Z,21.14
2019-02-26T17:28:47.751Z,21.29
2019-02-26T17:31:16.797Z,21.43
2019-02-26T17:33:46.748Z,21.53
2019-02-26T17:36:17.136Z,21.62
2019-02-26T17:38:46.613Z,21.63
2019-02-26T17:41:16.148Z,21.62
2019-02-26T17:43:45.688Z,21.63
2019-02-26T17:46:15.440Z,21.68
2019-02-26T17:48:45.060Z,21.71
2019-02-26T17:51:18.728Z,21.73
2019-02-26T17:53:47.862Z,21.76
2019-02-26T17:56:18.149Z,21.80
2019-02-26T17:58:49.389Z,21.87
2019-02-26T18:01:19.341Z,21.95
2019-02-26T18:03:48.878Z,22.04
2019-02-26T18:06:18.022Z,22.11
2019-02-26T18:08:48.821Z,22.18
2019-02-26T18:11:18.125Z,22.27
2019-02-26T18:13:47.619Z,22.36
2019-02-26T18:16:17.334Z,22.42
2019-02-26T18:18:47.265Z,22.39
2019-02-26T18:21:16.466Z,22.34
2019-02-26T18:23:45.486Z,22.33
2019-02-26T18:26:17.609Z,22.36
2019-02-26T18:28:47.785Z,22.39
2019-02-26T18:31:26.063Z,22.41
2019-02-26T18:33:50.580Z,22.44
2019-02-26T18:36:19.706Z,22.43
2019-02-26T18:38:49.300Z,22.36
2019-02-26T18:41:18.690Z,22.26
2019-02-26T18:43:49.120Z,22.16
2019-02-26T18:46:18.826Z,22.09
2019-02-26T18:48:48.691Z,22.03
2019-02-26T18:51:19.206Z,22.04
2019-02-26T18:53:49.757Z,22.16
2019-02-26T18:56:19.163Z,22.38
2019-02-26T18:58:49.969Z,22.60
2019-02-26T19:01:20.619Z,22.82
2019-02-26T19:03:50.337Z,23.02
2019-02-26T19:06:19.718Z,23.23
2019-02-26T19:08:49.074Z,23.43
2019-02-26T19:11:18.213Z,23.63
2019-02-26T19:13:47.835Z,23.80
2019-02-26T19:16:20.474Z,23.94
2019-02-26T19:18:49.969Z,23.99
2019-02-26T19:21:21.538Z,24.01
2019-02-26T19:23:50.015Z,24.04
2019-02-26T19:26:19.206Z,24.06
2019-02-26T19:28:48.421Z,24.07
2019-02-26T19:31:18.278Z,24.08
2019-02-26T19:33:48.229Z,24.08
2019-02-26T19:36:18.535Z,24.07
2019-02-26T19:38:47.607Z,24.04
2019-02-26T19:41:17.369Z,24.01
2019-02-26T19:43:46.884Z,23.96
2019-02-26T19:46:17.858Z,23.92
2019-02-26T19:48:48.121Z,23.88
2019-02-26T19:51:21.950Z,23.84
2019-02-26T19:53:49.579Z,23.79
2019-02-26T19:56:23.237Z,23.75
2019-02-26T19:58:51.776Z,23.69
2019-02-26T20:01:25.473Z,23.63
2019-02-26T20:03:53.661Z,23.58
2019-02-26T20:06:24.984Z,23.53
2019-02-26T20:08:54.262Z,23.47
2019-02-26T20:11:23.475Z,23.44
2019-02-26T20:13:53.298Z,23.41
2019-02-26T20:16:23.189Z,23.40
2019-02-26T20:18:53.318Z,23.39
2019-02-26T20:21:23.327Z,23.41
2019-02-26T20:23:53.538Z,23.44
2019-02-26T20:26:23.986Z,23.48
2019-02-26T20:28:53.944Z,23.52
2019-02-26T20:31:24.497Z,23.58
2019-02-26T20:33:54.058Z,23.61
2019-02-26T20:36:23.746Z,23.66
2019-02-26T20:38:53.569Z,23.70
2019-02-26T20:41:23.554Z,23.73
2019-02-26T20:43:52.880Z,23.73
2019-02-26T20:46:24.956Z,23.72
2019-02-26T20:48:54.024Z,23.73
2019-02-26T20:51:26.903Z,23.74
2019-02-26T20:53:54.998Z,23.76
2019-02-26T20:56:25.067Z,23.76
2019-02-26T20:58:54.136Z,23.76
2019-02-26T21:01:23.410Z,23.77
2019-02-26T21:03:52.526Z,23.76
2019-02-26T21:06:22.387Z,23.76
2019-02-26T21:08:51.883Z,23.74
2019-02-26T21:11:23.223Z,23.72
2019-02-26T21:13:52.017Z,23.69
2019-02-26T21:16:21.522Z,23.66
2019-02-26T21:18:50.981Z,23.63
2019-02-26T21:21:20.585Z,23.60
2019-02-26T21:23:50.216Z,23.56
2019-02-26T21:26:20.274Z,23.51
2019-02-26T21:28:49.871Z,23.47
2019-02-26T21:31:19.648Z,23.43
2019-02-26T21:33:48.813Z,23.40
2019-02-26T21:36:18.362Z,23.35
2019-02-26T21:38:47.891Z,23.32
2019-02-26T21:41:17.146Z,23.28
2019-02-26T21:43:48.558Z,23.23
2019-02-26T21:46:16.825Z,23.18
2019-02-26T21:48:46.018Z,23.17
2019-02-26T21:51:15.268Z,23.13
2019-02-26T21:53:46.674Z,23.10
2019-02-26T21:56:15.890Z,23.06
2019-02-26T21:58:45.300Z,23.04
2019-02-26T22:01:14.289Z,23.01
2019-02-26T22:03:43.446Z,22.97
2019-02-26T22:06:12.588Z,22.94
2019-02-26T22:08:41.948Z,22.92
2019-02-26T22:11:11.346Z,22.87
2019-02-26T22:13:40.319Z,22.84
2019-02-26T22:16:09.415Z,22.81
2019-02-26T22:18:38.419Z,22.78
2019-02-26T22:21:07.419Z,22.74
2019-02-26T22:23:36.279Z,22.72
2019-02-26T22:26:05.237Z,22.68
2019-02-26T22:28:34.229Z,22.65
2019-02-26T22:31:03.219Z,22.62
2019-02-26T22:33:32.137Z,22.58
2019-02-26T22:36:01.122Z,22.57
2019-02-26T22:38:29.997Z,22.53
2019-02-26T22:40:59.875Z,22.51
2019-02-26T22:43:29.350Z,22.48
2019-02-26T22:46:00.777Z,22.44
2019-02-26T22:48:28.864Z,22.42
2019-02-26T22:50:59.798Z,22.38
2019-02-26T22:53:28.400Z,22.34
2019-02-26T22:55:57.196Z,22.32
2019-02-26T22:58:26.136Z,22.29
2019-02-26T23:01:19.782Z,22.25
2019-02-26T23:03:48.534Z,22.23
2019-02-26T23:06:17.426Z,22.19
2019-02-26T23:08:48.705Z,22.16
2019-02-26T23:11:17.136Z,22.13
2019-02-26T23:13:46.008Z,22.11
2019-02-26T23:16:18.117Z,22.08
2019-02-26T23:18:45.435Z,22.04
2019-02-26T23:21:15.651Z,22.03
2019-02-26T23:23:45.057Z,22.02
2019-02-26T23:26:13.983Z,21.99
2019-02-26T23:28:42.861Z,21.96
2019-02-26T23:31:12.044Z,21.93
2019-02-26T23:33:40.971Z,21.90
2019-02-26T23:36:09.954Z,21.87
2019-02-26T23:38:38.743Z,21.85
2019-02-26T23:41:07.619Z,21.82
2019-02-26T23:43:36.455Z,21.81
2019-02-26T23:46:05.501Z,21.78
2019-02-26T23:48:34.418Z,21.76
2019-02-26T23:51:03.352Z,21.73
2019-02-26T23:53:34.130Z,21.72
2019-02-26T23:56:02.801Z,21.69
2019-02-26T23:58:31.682Z,21.68
